Time;durP1;ratioP1;P1;durP2;ratioP2;P2;SDS_P1;SDS_P2;PMS_P1;PMS_P2;Temp;Humidity;BMP_temperature;BMP_pressure;BME280_temperature;BME280_humidity;BME280_pressure;Samples;Min_cycle;Max_cycle;Signal;HPM_P1;HPM_P2
2023/05/15 00:00:10;;;;;;;5.40;2.15;;;15.40;99.90;;;;;;4882091;29;20388;-84
2023/05/15 00:02:43;;;;;;;8.07;2.15;;;15.40;99.90;;;;;;4879880;29;20426;-83
2023/05/15 00:05:11;;;;;;;4.88;2.05;;;15.40;99.90;;;;;;4881007;29;20052;-84
2023/05/15 00:07:39;;;;;;;5.40;2.08;;;15.40;99.90;;;;;;4882106;29;20105;-84
2023/05/15 00:10:06;;;;;;;6.00;2.45;;;15.40;99.90;;;;;;4880122;29;20057;-83
2023/05/15 00:12:33;;;;;;;6.28;2.00;;;15.40;99.90;;;;;;4880423;29;20048;-83
2023/05/15 00:15:00;;;;;;;5.97;2.35;;;15.30;99.90;;;;;;4880890;29;20490;-83
2023/05/15 00:17:28;;;;;;;5.05;2.28;;;15.30;99.90;;;;;;4879433;29;20500;-84
2023/05/15 00:19:56;;;;;;;7.65;2.58;;;15.30;99.90;;;;;;4880763;29;20125;-83
2023/05/15 00:22:23;;;;;;;6.72;2.38;;;15.30;99.90;;;;;;4895212;29;20045;-84
2023/05/15 00:24:49;;;;;;;5.75;2.38;;;15.20;99.90;;;;;;4881602;29;20133;-83
2023/05/15 00:30:02;;;;;;;7.30;2.70;;;15.20;99.90;;;;;;4895355;29;20059;-84
2023/05/15 00:32:29;;;;;;;6.18;2.42;;;15.20;99.90;;;;;;4895866;29;20141;-81
2023/05/15 00:34:55;;;;;;;6.30;2.40;;;15.20;99.90;;;;;;4896077;29;20077;-81
2023/05/15 00:37:22;;;;;;;6.53;2.45;;;15.10;99.90;;;;;;4895292;29;20380;-82
2023/05/15 00:39:49;;;;;;;7.05;2.50;;;15.10;99.90;;;;;;4896160;29;20425;-81
2023/05/15 00:42:16;;;;;;;6.15;2.38;;;15.10;99.90;;;;;;4895049;29;20064;-82
2023/05/15 00:44:42;;;;;;;7.10;2.33;;;15.10;99.90;;;;;;4895905;29;20061;-81
2023/05/15 00:47:10;;;;;;;5.90;2.28;;;15.10;99.90;;;;;;4895848;29;20503;-81
2023/05/15 00:49:37;;;;;;;5.15;2.30;;;15.10;99.90;;;;;;4880983;29;20084;-82
2023/05/15 00:52:07;;;;;;;7.63;2.33;;;15.20;99.90;;;;;;4879606;29;20052;-81
2023/05/15 00:54:34;;;;;;;7.53;2.30;;;15.20;99.90;;;;;;4895739;29;20374;-82
2023/05/15 00:59:49;;;;;;;4.97;2.00;;;15.10;99.90;;;;;;4880147;29;20045;-81
2023/05/15 01:02:15;;;;;;;7.60;2.88;;;15.10;99.90;;;;;;4880046;29;20052;-81
2023/05/15 01:04:42;;;;;;;7.22;2.60;;;15.10;99.90;;;;;;4881064;29;20120;-81
2023/05/15 01:07:09;;;;;;;7.68;2.80;;;15.00;99.90;;;;;;4894390;29;20041;-81
2023/05/15 01:09:36;;;;;;;7.10;2.53;;;15.00;99.90;;;;;;4880539;29;20041;-82
2023/05/15 01:12:02;;;;;;;6.32;2.72;;;15.00;99.90;;;;;;4881303;29;20041;-82
2023/05/15 01:14:30;;;;;;;6.00;2.53;;;15.00;99.90;;;;;;4881076;29;20161;-82
2023/05/15 01:17:00;;;;;;;6.25;2.67;;;15.00;99.90;;;;;;4894587;29;20080;-82
2023/05/15 01:19:27;;;;;;;7.07;2.85;;;15.00;99.90;;;;;;4895536;29;20049;-82
2023/05/15 01:21:53;;;;;;;6.70;2.40;;;15.00;99.90;;;;;;4894787;29;20045;-82
2023/05/15 01:24:20;;;;;;;8.88;2.55;;;15.00;99.90;;;;;;4895457;29;20057;-82
2023/05/15 01:26:49;;;;;;;5.20;2.05;;;15.00;99.90;;;;;;4895296;29;20384;-81
2023/05/15 01:29:15;;;;;;;5.68;2.05;;;15.00;99.90;;;;;;4897451;29;20049;-82
2023/05/15 01:31:42;;;;;;;4.88;2.00;;;14.90;99.90;;;;;;4899281;29;20048;-82
2023/05/15 01:34:09;;;;;;;5.25;2.00;;;14.80;99.90;;;;;;4899353;29;20537;-82
2023/05/15 01:36:38;;;;;;;4.90;1.95;;;14.80;99.90;;;;;;4882706;29;20049;-81
2023/05/15 01:39:04;;;;;;;7.18;1.90;;;14.80;99.90;;;;;;4899315;29;20379;-82
2023/05/15 01:41:31;;;;;;;5.97;1.80;;;14.80;99.90;;;;;;4899277;29;20045;-82
2023/05/15 01:43:58;;;;;;;6.53;1.88;;;14.70;99.90;;;;;;4882801;29;20073;-81
2023/05/15 01:49:11;;;;;;;7.18;2.05;;;14.80;99.90;;;;;;4886051;29;20058;-82
2023/05/15 01:51:38;;;;;;;6.28;1.90;;;14.80;99.90;;;;;;4901002;29;20052;-81
2023/05/15 01:54:05;;;;;;;4.30;1.48;;;14.80;99.90;;;;;;4900607;29;20041;-81
2023/05/15 01:56:32;;;;;;;6.93;2.55;;;14.80;99.90;;;;;;4900433;29;20045;-81
2023/05/15 01:58:59;;;;;;;5.38;2.00;;;14.80;99.90;;;;;;4886312;29;20045;-81
2023/05/15 02:01:27;;;;;;;4.32;1.58;;;14.80;99.90;;;;;;4900355;29;20080;-81
2023/05/15 02:03:54;;;;;;;3.55;1.42;;;14.80;99.90;;;;;;4899767;29;20391;-81
2023/05/15 02:09:08;;;;;;;7.57;1.67;;;14.70;99.90;;;;;;4884118;29;20056;-81
2023/05/15 02:11:34;;;;;;;4.80;1.90;;;14.70;99.90;;;;;;4899971;29;20056;-82
2023/05/15 02:14:02;;;;;;;5.75;1.90;;;14.60;99.90;;;;;;4899702;29;20150;-82
2023/05/15 02:16:30;;;;;;;5.90;2.10;;;14.60;99.90;;;;;;4897559;29;20473;-82
2023/05/15 02:18:57;;;;;;;6.60;2.08;;;14.50;99.90;;;;;;4883093;29;20350;-81
2023/05/15 02:21:24;;;;;;;4.80;2.08;;;14.40;99.90;;;;;;4898785;29;20131;-82
2023/05/15 02:23:51;;;;;;;4.80;1.65;;;14.40;99.90;;;;;;4897556;29;20144;-82
2023/05/15 02:26:17;;;;;;;6.85;2.53;;;14.20;99.90;;;;;;4898187;29;20076;-81
2023/05/15 02:28:45;;;;;;;5.90;2.40;;;14.20;99.90;;;;;;4897494;29;20049;-81
2023/05/15 02:31:11;;;;;;;4.57;1.92;;;14.20;99.90;;;;;;4898506;29;20056;-82
2023/05/15 02:33:38;;;;;;;7.57;2.35;;;14.20;99.90;;;;;;4883456;29;20439;-82
2023/05/15 02:36:06;;;;;;;6.47;2.92;;;14.20;99.90;;;;;;4897209;29;20049;-82
2023/05/15 02:38:32;;;;;;;9.52;3.13;;;14.20;99.90;;;;;;4898302;29;20052;-82
2023/05/15 02:40:59;;;;;;;7.15;2.33;;;14.20;99.90;;;;;;4883290;29;20053;-82
2023/05/15 02:43:26;;;;;;;9.40;2.60;;;14.20;99.90;;;;;;4897258;29;20049;-82
2023/05/15 02:45:54;;;;;;;5.15;2.38;;;14.20;99.90;;;;;;4897775;29;20483;-82
2023/05/15 02:48:21;;;;;;;7.43;2.30;;;14.20;99.90;;;;;;4898178;29;20464;-82
2023/05/15 02:50:47;;;;;;;5.95;2.30;;;14.20;99.90;;;;;;4881350;29;20056;-82
2023/05/15 02:53:15;;;;;;;6.93;2.20;;;14.20;99.90;;;;;;4882092;29;20365;-82
2023/05/15 02:55:42;;;;;;;5.38;2.17;;;14.20;99.90;;;;;;4896821;29;20068;-82
2023/05/15 02:58:09;;;;;;;11.40;2.88;;;14.20;99.90;;;;;;4897769;29;20453;-82
2023/05/15 03:00:36;;;;;;;5.60;2.50;;;14.10;99.90;;;;;;4897994;29;20041;-82
2023/05/15 03:03:02;;;;;;;5.75;2.30;;;14.10;99.90;;;;;;4881275;29;20082;-82
2023/05/15 03:05:29;;;;;;;9.95;2.97;;;14.10;99.90;;;;;;4881840;29;20055;-82
2023/05/15 03:10:59;;;;;;;6.90;2.58;;;14.00;99.90;;;;;;4897691;29;20485;-81
2023/05/15 03:13:26;;;;;;;8.40;2.63;;;14.10;99.90;;;;;;4882917;29;20041;-83
2023/05/15 03:18:38;;;;;;;6.93;2.47;;;14.00;99.90;;;;;;4883053;29;20045;-82
2023/05/15 03:21:05;;;;;;;8.63;2.60;;;13.90;99.90;;;;;;4881599;29;20057;-82
2023/05/15 03:23:32;;;;;;;7.03;2.90;;;13.90;99.90;;;;;;4881940;29;20075;-82
2023/05/15 03:28:46;;;;;;;6.93;2.80;;;13.90;99.90;;;;;;4880989;29;20481;-81
2023/05/15 03:31:13;;;;;;;8.55;3.35;;;13.90;99.90;;;;;;4882572;29;20047;-82
2023/05/15 03:33:40;;;;;;;7.03;2.55;;;13.80;99.90;;;;;;4881579;29;20100;-82
2023/05/15 03:38:53;;;;;;;8.20;2.72;;;13.70;99.90;;;;;;4882456;29;20475;-81
2023/05/15 03:41:20;;;;;;;7.53;2.97;;;13.80;99.90;;;;;;4897283;29;20112;-82
2023/05/15 03:43:46;;;;;;;7.13;3.10;;;13.70;99.90;;;;;;4880568;29;20049;-83
2023/05/15 03:46:19;;;;;;;6.30;2.83;;;13.60;99.90;;;;;;4881258;29;20112;-82
2023/05/15 03:48:46;;;;;;;6.95;3.15;;;13.60;99.90;;;;;;4881774;29;20127;-82
2023/05/15 03:51:12;;;;;;;8.65;2.72;;;13.60;99.90;;;;;;4896253;29;20049;-82
2023/05/15 03:53:39;;;;;;;7.25;2.65;;;13.60;99.90;;;;;;4882173;29;20435;-82
2023/05/15 03:56:08;;;;;;;7.65;3.17;;;13.50;99.90;;;;;;4895736;29;20052;-82
2023/05/15 03:58:34;;;;;;;5.57;2.55;;;13.50;99.90;;;;;;4881215;29;20057;-82
2023/05/15 04:01:01;;;;;;;7.95;2.90;;;13.50;99.90;;;;;;4896446;29;20041;-82
2023/05/15 04:03:28;;;;;;;7.57;3.15;;;13.60;99.90;;;;;;4896009;29;20076;-82
2023/05/15 04:05:56;;;;;;;6.95;2.78;;;13.50;99.90;;;;;;4896312;29;20059;-82
2023/05/15 04:08:23;;;;;;;7.68;2.65;;;13.50;99.90;;;;;;4896550;29;20049;-82
2023/05/15 04:10:49;;;;;;;6.55;2.67;;;13.50;99.90;;;;;;4880051;29;20044;-82
2023/05/15 04:13:16;;;;;;;8.70;3.22;;;13.50;99.90;;;;;;4880861;29;20124;-82
2023/05/15 04:15:43;;;;;;;8.07;3.08;;;13.50;99.90;;;;;;4879878;29;20045;-82
2023/05/15 04:18:09;;;;;;;7.30;3.10;;;13.50;99.90;;;;;;4880784;29;20067;-82
2023/05/15 04:20:36;;;;;;;9.35;3.13;;;13.40;99.90;;;;;;4881718;29;20045;-82
2023/05/15 04:23:04;;;;;;;9.85;3.78;;;13.40;99.90;;;;;;4895519;29;20053;-82
2023/05/15 04:25:31;;;;;;;8.00;3.85;;;13.40;99.90;;;;;;4895817;29;20075;-82
2023/05/15 04:30:45;;;;;;;8.90;3.50;;;13.30;99.90;;;;;;4879987;29;20052;-83
2023/05/15 04:33:12;;;;;;;10.02;4.35;;;13.20;99.90;;;;;;4881726;29;20045;-82
2023/05/15 04:35:40;;;;;;;9.00;3.42;;;13.20;99.90;;;;;;4880536;29;20375;-83
2023/05/15 04:38:06;;;;;;;8.20;3.70;;;13.10;99.90;;;;;;4896166;29;20045;-82
2023/05/15 04:40:33;;;;;;;11.95;4.32;;;13.10;99.90;;;;;;4895990;29;20188;-82
2023/05/15 04:43:02;;;;;;;8.05;3.70;;;13.00;99.90;;;;;;4895121;29;20116;-82
2023/05/15 04:45:29;;;;;;;9.18;3.60;;;13.00;99.90;;;;;;4881133;29;20049;-82
2023/05/15 04:51:00;;;;;;;11.05;3.80;;;12.90;99.90;;;;;;4881394;29;20044;-81
2023/05/15 04:53:26;;;;;;;12.30;3.78;;;12.80;99.90;;;;;;4895661;29;20135;-81
2023/05/15 04:55:55;;;;;;;9.07;3.60;;;12.70;99.90;;;;;;4880232;29;20044;-81
2023/05/15 04:58:22;;;;;;;6.53;3.00;;;12.60;99.90;;;;;;4895780;29;20045;-81
2023/05/15 05:00:49;;;;;;;8.27;3.58;;;12.40;99.90;;;;;;4877646;29;20487;-81
2023/05/15 05:03:15;;;;;;;10.50;3.72;;;12.30;99.90;;;;;;4875223;29;20057;-81
2023/05/15 05:05:43;;;;;;;16.95;3.95;;;12.30;99.90;;;;;;4876792;29;20088;-81
2023/05/15 05:08:10;;;;;;;8.80;3.65;;;12.20;99.90;;;;;;4877068;29;20053;-80
2023/05/15 05:10:36;;;;;;;8.43;3.40;;;12.20;99.90;;;;;;4876213;29;20055;-80
2023/05/15 05:13:03;;;;;;;8.50;3.88;;;12.10;99.90;;;;;;4876788;29;20426;-81
2023/05/15 05:15:30;;;;;;;11.80;3.88;;;12.10;99.90;;;;;;4876008;29;20053;-82
2023/05/15 05:20:42;;;;;;;7.88;2.58;;;12.00;99.90;;;;;;4862465;29;20376;-80
2023/05/15 05:23:08;;;;;;;7.68;2.97;;;11.90;99.90;;;;;;4876118;29;20046;-80
2023/05/15 05:25:35;;;;;;;7.32;3.10;;;11.80;99.90;;;;;;4876620;29;20362;-80
2023/05/15 05:28:02;;;;;;;8.70;2.85;;;11.80;99.90;;;;;;4876723;29;20128;-80
2023/05/15 05:30:28;;;;;;;9.30;2.60;;;11.70;99.90;;;;;;4871988;29;20051;-80
2023/05/15 05:32:55;;;;;;;7.72;3.10;;;11.70;99.90;;;;;;4879846;29;20358;-80
2023/05/15 05:35:22;;;;;;;8.30;3.03;;;11.70;99.90;;;;;;4879683;29;20041;-80
2023/05/15 05:37:51;;;;;;;9.40;2.72;;;11.70;99.90;;;;;;4880945;29;20120;-80
2023/05/15 05:40:17;;;;;;;8.57;3.00;;;11.60;99.90;;;;;;4880763;29;20188;-80
2023/05/15 05:42:44;;;;;;;9.25;2.85;;;11.50;99.90;;;;;;4879868;29;20041;-80
2023/05/15 05:45:11;;;;;;;6.00;2.67;;;11.60;99.90;;;;;;4880489;29;20059;-80
2023/05/15 05:47:37;;;;;;;6.80;2.38;;;11.60;99.90;;;;;;4895290;29;20045;-80
2023/05/15 05:50:04;;;;;;;7.00;2.60;;;11.50;99.90;;;;;;4894476;29;20077;-80
2023/05/15 05:52:31;;;;;;;10.25;2.33;;;11.50;99.90;;;;;;4879641;29;20045;-80
2023/05/15 05:54:57;;;;;;;7.63;2.53;;;11.50;99.90;;;;;;4880660;29;20073;-80
2023/05/15 05:57:25;;;;;;;10.40;3.08;;;11.50;99.90;;;;;;4879456;29;20072;-80
2023/05/15 05:59:52;;;;;;;6.57;2.22;;;11.40;99.90;;;;;;4880584;29;20402;-80
2023/05/15 06:02:18;;;;;;;7.20;2.28;;;11.50;99.90;;;;;;4879646;29;20477;-80
2023/05/15 06:04:45;;;;;;;7.57;2.17;;;11.40;99.90;;;;;;4880598;29;20049;-80
2023/05/15 06:09:58;;;;;;;8.48;2.63;;;11.40;99.90;;;;;;4878837;29;20052;-80
2023/05/15 06:12:24;;;;;;;11.98;2.45;;;11.50;99.90;;;;;;4879478;29;20366;-80
2023/05/15 06:14:51;;;;;;;8.85;2.38;;;11.40;99.90;;;;;;4881478;29;20445;-81
2023/05/15 06:17:20;;;;;;;6.72;2.30;;;11.40;99.90;;;;;;4882046;29;20041;-80
2023/05/15 06:19:46;;;;;;;4.85;1.77;;;11.40;99.90;;;;;;4883872;29;20045;-80
2023/05/15 06:22:13;;;;;;;12.73;2.08;;;11.50;99.90;;;;;;4882088;29;20077;-80
2023/05/15 06:24:41;;;;;;;4.40;1.60;;;11.50;99.90;;;;;;4883751;29;20045;-81
2023/05/15 06:27:07;;;;;;;6.00;2.22;;;11.40;99.90;;;;;;4882586;29;20063;-80
2023/05/15 06:29:34;;;;;;;7.65;2.17;;;11.50;99.90;;;;;;4882309;29;20479;-80
2023/05/15 06:32:01;;;;;;;9.70;2.05;;;11.50;99.90;;;;;;4882772;29;20124;-81
2023/05/15 06:34:28;;;;;;;7.22;2.45;;;11.50;99.90;;;;;;4882491;29;20072;-81
2023/05/15 06:36:55;;;;;;;5.00;1.88;;;11.50;99.90;;;;;;4882498;29;20123;-81
2023/05/15 06:39:22;;;;;;;5.68;1.92;;;11.60;99.90;;;;;;4883278;29;20045;-81
2023/05/15 06:41:49;;;;;;;10.73;2.13;;;11.50;99.90;;;;;;4881564;29;20480;-81
2023/05/15 06:44:17;;;;;;;11.30;2.45;;;11.60;99.90;;;;;;4882450;29;20548;-81
2023/05/15 06:46:45;;;;;;;7.40;2.17;;;11.60;99.90;;;;;;4883187;29;20109;-81
2023/05/15 06:49:12;;;;;;;7.60;1.55;;;11.60;99.90;;;;;;4882512;29;20041;-82
2023/05/15 06:51:38;;;;;;;13.38;2.17;;;11.60;99.90;;;;;;4883297;29;20056;-82
2023/05/15 06:54:05;;;;;;;9.15;2.28;;;11.70;99.90;;;;;;4882338;29;20045;-82
2023/05/15 06:59:04;;;;;;;7.55;2.25;;;11.70;99.90;;;;;;4897929;29;20067;-82
2023/05/15 07:01:30;;;;;;;8.38;1.90;;;11.70;99.90;;;;;;4881956;29;20123;-82
2023/05/15 07:03:57;;;;;;;10.40;2.05;;;11.70;99.90;;;;;;4881440;29;20505;-82
2023/05/15 07:09:11;;;;;;;8.07;2.10;;;11.90;99.90;;;;;;4896870;29;20053;-82
2023/05/15 07:11:38;;;;;;;10.88;2.17;;;11.80;99.90;;;;;;4882059;29;20192;-81
2023/05/15 07:14:04;;;;;;;9.25;1.60;;;11.90;99.90;;;;;;4882059;29;20049;-82
2023/05/15 07:19:21;;;;;;;9.13;1.92;;;11.90;99.90;;;;;;4881959;29;20092;-82
2023/05/15 07:21:48;;;;;;;8.73;1.50;;;11.90;99.90;;;;;;4881120;29;20454;-81
2023/05/15 07:24:15;;;;;;;9.35;1.90;;;11.90;99.90;;;;;;4897437;29;20049;-82
2023/05/15 07:26:43;;;;;;;6.13;2.00;;;12.00;99.90;;;;;;4865167;29;20472;-82
2023/05/15 07:29:24;;;;;;;6.90;1.75;;;12.00;99.90;;;;;;4867432;29;20380;-82
2023/05/15 07:31:51;;;;;;;8.27;1.63;;;12.10;99.90;;;;;;4866187;29;20049;-82
2023/05/15 07:34:17;;;;;;;6.32;1.48;;;12.10;99.90;;;;;;4866204;29;20069;-81
2023/05/15 07:36:46;;;;;;;4.13;1.30;;;12.10;99.90;;;;;;4865163;29;20381;-82
2023/05/15 07:39:13;;;;;;;4.63;1.42;;;12.20;99.90;;;;;;4866010;29;20140;-81
2023/05/15 07:41:39;;;;;;;12.07;2.10;;;12.10;99.90;;;;;;4882450;29;20081;-83
2023/05/15 07:44:06;;;;;;;7.53;1.40;;;12.10;99.90;;;;;;4880802;29;20076;-83
2023/05/15 07:46:35;;;;;;;15.00;2.17;;;12.10;99.90;;;;;;4881399;29;20433;-82
2023/05/15 07:49:02;;;;;;;6.30;1.52;;;12.20;99.90;;;;;;4881788;29;20063;-81
2023/05/15 07:51:29;;;;;;;5.30;1.70;;;12.30;99.90;;;;;;4881274;29;20041;-81
2023/05/15 07:53:55;;;;;;;6.63;1.50;;;12.60;99.90;;;;;;4881300;29;20388;-81
2023/05/15 07:56:23;;;;;;;7.18;1.40;;;12.70;99.90;;;;;;4880554;29;20429;-81
2023/05/15 07:58:50;;;;;;;5.75;1.40;;;12.80;99.90;;;;;;4881341;29;20048;-81
2023/05/15 08:01:17;;;;;;;10.15;1.65;;;12.80;99.90;;;;;;4882119;29;20123;-82
2023/05/15 08:03:43;;;;;;;5.57;1.92;;;12.80;99.90;;;;;;4896226;29;20072;-81
2023/05/15 08:06:10;;;;;;;5.45;1.50;;;12.90;99.90;;;;;;4880728;29;20121;-82
2023/05/15 08:08:37;;;;;;;6.28;1.48;;;12.80;99.90;;;;;;4895978;29;20473;-81
2023/05/15 08:11:04;;;;;;;9.38;1.63;;;12.90;99.90;;;;;;4896416;29;20060;-81
2023/05/15 08:13:31;;;;;;;7.53;1.20;;;13.10;99.90;;;;;;4881845;29;20041;-82
2023/05/15 08:15:59;;;;;;;7.15;1.42;;;13.30;99.90;;;;;;4880283;29;20037;-82
2023/05/15 08:18:26;;;;;;;4.28;1.23;;;13.50;99.90;;;;;;4881978;29;20049;-82
2023/05/15 08:20:53;;;;;;;7.93;1.60;;;13.60;99.90;;;;;;4880800;29;20044;-81
2023/05/15 08:23:19;;;;;;;4.88;1.40;;;13.80;99.90;;;;;;4880042;29;20044;-81
2023/05/15 08:25:46;;;;;;;4.55;1.42;;;13.90;99.90;;;;;;4879778;29;20128;-81
2023/05/15 08:28:13;;;;;;;4.20;1.30;;;14.00;99.90;;;;;;4882625;29;20041;-80
2023/05/15 08:30:39;;;;;;;6.97;1.60;;;14.10;99.90;;;;;;4863691;29;20053;-81
2023/05/15 08:33:06;;;;;;;5.28;1.33;;;14.20;99.90;;;;;;4863223;29;20462;-84
2023/05/15 08:35:33;;;;;;;5.53;1.40;;;14.40;99.90;;;;;;4861240;29;20041;-81
2023/05/15 08:37:59;;;;;;;10.05;1.20;;;14.40;99.90;;;;;;4895322;29;20434;-82
2023/05/15 08:40:27;;;;;;;7.88;1.50;;;14.40;99.90;;;;;;4895745;29;20037;-81
2023/05/15 08:42:57;;;;;;;4.93;1.60;;;14.40;99.90;;;;;;4880822;29;20055;-82
2023/05/15 08:45:23;;;;;;;7.38;1.63;;;14.50;99.90;;;;;;4894767;29;20064;-82
2023/05/15 08:47:50;;;;;;;4.97;1.35;;;14.60;99.90;;;;;;4881446;29;20238;-82
2023/05/15 08:50:17;;;;;;;3.72;1.10;;;14.80;99.90;;;;;;4864563;29;20370;-81
2023/05/15 08:52:45;;;;;;;3.55;1.42;;;14.80;99.90;;;;;;4880498;29;20041;-81
2023/05/15 08:55:12;;;;;;;4.57;1.50;;;14.90;99.90;;;;;;4894648;29;20045;-82
2023/05/15 08:57:39;;;;;;;6.40;1.83;;;15.10;99.90;;;;;;4881308;29;20051;-82
2023/05/15 09:00:10;;;;;;;7.38;1.45;;;15.20;99.90;;;;;;4881168;29;20172;-82
2023/05/15 09:02:37;;;;;;;;;;;15.20;99.90;;;;;;4864044;29;20060;-84
2023/05/15 09:05:05;;;;;;;5.22;1.50;;;15.20;99.90;;;;;;4895385;29;19928;-86
2023/05/15 09:07:31;;;;;;;6.32;1.23;;;15.20;99.90;;;;;;4879874;29;20115;-84
2023/05/15 09:09:58;;;;;;;7.72;1.38;;;15.30;99.90;;;;;;4879750;29;20048;-83
2023/05/15 09:12:25;;;;;;;8.48;1.30;;;15.50;99.90;;;;;;4879996;29;20045;-83
2023/05/15 09:14:52;;;;;;;6.38;1.27;;;15.50;99.90;;;;;;4858895;29;20050;-82
2023/05/15 09:17:19;;;;;;;7.28;1.60;;;15.60;99.90;;;;;;4889999;29;20053;-83
2023/05/15 09:19:45;;;;;;;8.35;1.35;;;15.50;99.90;;;;;;4877566;29;20059;-82
2023/05/15 09:22:12;;;;;;;6.38;1.10;;;15.40;99.90;;;;;;4871881;29;20056;-82
2023/05/15 09:24:38;;;;;;;7.13;1.42;;;15.20;99.90;;;;;;4875479;29;20057;-82
2023/05/15 09:27:05;;;;;;;9.93;1.10;;;15.30;99.90;;;;;;4879190;29;20552;-82
2023/05/15 09:29:32;;;;;;;6.45;1.20;;;15.20;99.90;;;;;;4878728;29;20063;-83
2023/05/15 09:32:01;;;;;;;2.13;0.93;;;15.20;99.90;;;;;;4862392;29;20056;-83
2023/05/15 09:34:28;;;;;;;4.88;1.13;;;15.50;99.90;;;;;;4860227;29;20376;-83
2023/05/15 09:36:55;;;;;;;7.13;2.00;;;15.70;99.90;;;;;;4861484;29;20674;-83
2023/05/15 09:39:22;;;;;;;6.45;1.10;;;15.90;99.90;;;;;;4863503;29;20052;-82
2023/05/15 09:41:48;;;;;;;6.97;1.50;;;16.00;99.90;;;;;;4878805;29;20053;-82
2023/05/15 09:44:15;;;;;;;6.38;1.30;;;16.00;99.90;;;;;;4893335;29;20056;-82
2023/05/15 09:49:47;;;;;;;4.93;1.30;;;16.30;99.90;;;;;;4880466;29;20124;-83
2023/05/15 09:52:13;;;;;;;4.15;1.30;;;16.50;99.90;;;;;;4867362;29;20128;-83
2023/05/15 09:54:40;;;;;;;6.03;1.42;;;16.50;99.90;;;;;;4898673;29;20407;-85
2023/05/15 09:57:08;;;;;;;6.97;1.58;;;16.60;99.90;;;;;;4882659;29;20043;-81
2023/05/15 09:59:35;;;;;;;4.63;1.15;;;16.40;99.90;;;;;;4867671;29;20049;-83
2023/05/15 10:02:02;;;;;;;7.65;1.52;;;16.50;99.90;;;;;;4866212;29;20091;-82
2023/05/15 10:04:31;;;;;;;6.00;1.40;;;16.50;99.90;;;;;;4898124;29;20472;-83
2023/05/15 10:06:59;;;;;;;9.38;1.45;;;16.80;99.90;;;;;;4882663;29;20060;-82
2023/05/15 10:09:26;;;;;;;5.53;1.13;;;16.70;96.90;;;;;;4882682;29;20060;-83
2023/05/15 10:11:52;;;;;;;5.63;1.48;;;16.70;95.20;;;;;;4898298;29;20041;-82
2023/05/15 10:14:19;;;;;;;5.68;1.45;;;16.90;99.90;;;;;;4866778;29;20045;-82
2023/05/15 10:16:46;;;;;;;6.07;1.27;;;17.00;96.20;;;;;;4865594;29;20520;-82
2023/05/15 10:19:12;;;;;;;9.02;1.50;;;17.00;92.40;;;;;;4873781;29;20052;-83
2023/05/15 10:21:39;;;;;;;5.85;1.30;;;16.90;92.60;;;;;;4897868;29;20041;-82
2023/05/15 10:24:06;;;;;;;7.57;1.27;;;16.80;94.60;;;;;;4881453;29;20429;-82
2023/05/15 10:29:20;;;;;;;10.20;1.95;;;16.90;93.60;;;;;;4897186;29;20055;-83
2023/05/15 10:31:47;;;;;;;3.85;1.30;;;17.00;92.00;;;;;;4882403;29;20097;-83
2023/05/15 10:34:14;;;;;;;8.15;1.52;;;17.00;90.90;;;;;;4882535;29;20049;-84
2023/05/15 10:36:43;;;;;;;4.07;1.23;;;17.10;91.70;;;;;;4882117;29;20049;-84
2023/05/15 10:39:10;;;;;;;7.20;1.63;;;17.00;87.10;;;;;;4866453;29;20053;-84
2023/05/15 10:41:36;;;;;;;4.95;1.02;;;17.00;88.70;;;;;;4866638;29;20053;-85
2023/05/15 10:44:03;;;;;;;5.68;1.33;;;17.20;87.80;;;;;;4881110;29;20049;-84
2023/05/15 10:46:30;;;;;;;7.93;1.33;;;17.60;90.40;;;;;;4866440;29;20140;-84
2023/05/15 10:48:56;;;;;;;5.88;1.40;;;17.80;90.60;;;;;;4881914;29;20081;-85
2023/05/15 10:51:23;;;;;;;3.47;1.08;;;18.00;82.70;;;;;;4896472;29;20464;-85
2023/05/15 10:53:50;;;;;;;8.10;1.23;;;18.30;80.90;;;;;;4897575;29;20060;-85
2023/05/15 10:56:18;;;;;;;4.15;1.30;;;17.90;82.10;;;;;;4880618;29;20045;-85
2023/05/15 10:58:46;;;;;;;4.75;1.23;;;18.40;83.20;;;;;;4881991;29;20122;-84
2023/05/15 11:01:12;;;;;;;4.82;1.38;;;18.40;85.80;;;;;;4897389;29;20460;-84
2023/05/15 11:03:41;;;;;;;5.88;1.10;;;18.30;81.30;;;;;;4882175;29;20041;-84
2023/05/15 11:08:45;;;;;;;7.60;1.40;;;17.60;85.50;;;;;;4896454;29;20057;-85
2023/05/15 11:11:12;;;;;;;13.60;1.83;;;17.70;85.70;;;;;;4881690;29;20140;-84
2023/05/15 11:13:38;;;;;;;9.35;1.38;;;18.00;84.90;;;;;;4896539;29;20053;-84
2023/05/15 11:16:05;;;;;;;6.68;1.33;;;17.60;89.60;;;;;;4880831;29;20049;-84
2023/05/15 11:18:32;;;;;;;5.43;1.40;;;17.90;90.10;;;;;;4881573;29;20071;-86
2023/05/15 11:21:01;;;;;;;8.23;1.40;;;17.90;86.70;;;;;;4896222;29;20045;-84
2023/05/15 11:23:28;;;;;;;8.88;1.88;;;18.10;87.10;;;;;;4895974;29;20136;-84
2023/05/15 11:25:54;;;;;;;5.97;1.20;;;19.10;90.10;;;;;;4880759;29;20105;-84
2023/05/15 11:28:21;;;;;;;9.35;1.50;;;19.40;84.40;;;;;;4881655;29;20052;-84
2023/05/15 11:30:48;;;;;;;5.75;1.30;;;18.50;85.40;;;;;;4880161;29;20445;-85
2023/05/15 11:33:15;;;;;;;3.17;1.10;;;18.20;87.60;;;;;;4896746;29;20536;-84
2023/05/15 11:35:42;;;;;;;8.65;1.42;;;18.10;86.30;;;;;;4880242;29;20104;-84
2023/05/15 11:38:09;;;;;;;3.50;1.20;;;17.90;86.90;;;;;;4896761;29;20041;-84
2023/05/15 11:40:35;;;;;;;3.58;1.00;;;17.50;89.80;;;;;;4881108;29;20128;-83
2023/05/15 11:43:02;;;;;;;5.82;1.45;;;17.50;87.10;;;;;;4895217;29;20049;-85
2023/05/15 11:45:29;;;;;;;4.05;1.20;;;17.30;91.20;;;;;;4881465;29;20048;-84
2023/05/15 11:47:56;;;;;;;4.20;1.13;;;17.20;89.50;;;;;;4896554;29;20063;-84
2023/05/15 11:50:23;;;;;;;7.13;1.40;;;17.00;90.00;;;;;;4879479;29;20413;-84
2023/05/15 11:52:50;;;;;;;5.60;1.75;;;16.70;90.60;;;;;;4881645;29;20484;-83
2023/05/15 11:55:17;;;;;;;4.00;1.25;;;16.60;90.00;;;;;;4880156;29;20052;-84
2023/05/15 11:57:43;;;;;;;7.13;1.95;;;16.50;90.60;;;;;;4880442;29;20465;-84
2023/05/15 12:00:10;;;;;;;5.10;1.40;;;16.60;90.30;;;;;;4880645;29;20041;-83
2023/05/15 12:02:37;;;;;;;3.13;1.08;;;16.90;89.50;;;;;;4880626;29;20065;-84
2023/05/15 12:05:04;;;;;;;5.43;1.30;;;17.20;89.30;;;;;;4881158;29;20049;-84
2023/05/15 12:10:17;;;;;;;3.22;0.98;;;18.10;89.80;;;;;;4880880;29;20049;-84
2023/05/15 12:12:44;;;;;;;3.75;1.00;;;18.70;83.70;;;;;;4880529;29;20056;-84
2023/05/15 12:15:11;;;;;;;5.47;1.30;;;19.50;82.80;;;;;;4896022;29;20048;-85
2023/05/15 12:17:37;;;;;;;4.97;1.25;;;19.90;80.40;;;;;;4882354;29;20083;-84
2023/05/15 12:20:04;;;;;;;4.60;1.20;;;20.40;83.10;;;;;;4881537;29;20045;-84
2023/05/15 12:22:31;;;;;;;4.80;1.23;;;20.30;81.80;;;;;;4879860;29;20049;-84
2023/05/15 12:24:58;;;;;;;6.25;1.48;;;19.70;83.60;;;;;;4880725;29;20049;-84
2023/05/15 12:27:25;;;;;;;3.35;1.08;;;18.90;85.00;;;;;;4864428;29;20044;-84
2023/05/15 12:29:52;;;;;;;4.60;1.30;;;17.90;84.80;;;;;;4879299;29;20121;-84
2023/05/15 12:32:18;;;;;;;5.25;1.40;;;17.70;88.60;;;;;;4880654;29;20041;-84
2023/05/15 12:34:45;;;;;;;6.28;1.45;;;17.70;87.90;;;;;;4879062;29;20055;-83
2023/05/15 12:37:12;;;;;;;3.83;1.40;;;17.80;90.00;;;;;;4879197;29;20052;-84
2023/05/15 12:39:39;;;;;;;8.30;1.40;;;17.70;87.90;;;;;;4881198;29;20128;-83
2023/05/15 12:42:05;;;;;;;6.50;1.60;;;17.50;89.10;;;;;;4879204;29;20275;-84
2023/05/15 12:44:32;;;;;;;5.82;1.40;;;17.50;90.00;;;;;;4879557;29;20064;-84
2023/05/15 12:47:00;;;;;;;4.50;1.70;;;17.40;90.60;;;;;;4880894;29;20452;-84
2023/05/15 12:49:27;;;;;;;5.88;1.70;;;18.30;91.40;;;;;;4879133;29;20141;-83
2023/05/15 12:51:53;;;;;;;6.25;1.63;;;19.30;90.30;;;;;;4864860;29;20069;-85
2023/05/15 12:54:20;;;;;;;5.22;1.60;;;20.20;82.50;;;;;;4879908;29;20044;-84
2023/05/15 12:56:47;;;;;;;7.22;1.60;;;19.90;84.50;;;;;;4893074;29;20044;-84
2023/05/15 12:59:14;;;;;;;4.95;1.40;;;19.60;87.00;;;;;;4879882;29;20445;-84
2023/05/15 13:01:43;;;;;;;8.85;1.77;;;18.80;86.70;;;;;;4894911;29;20076;-82
2023/05/15 13:04:10;;;;;;;6.20;1.50;;;18.30;89.20;;;;;;4877826;29;20041;-83
2023/05/15 13:06:37;;;;;;;6.63;1.60;;;17.80;90.30;;;;;;4878658;29;20052;-83
2023/05/15 13:09:12;;;;;;;6.38;1.60;;;17.40;89.60;;;;;;4877062;29;20092;-83
2023/05/15 13:11:38;;;;;;;4.75;1.50;;;17.50;91.20;;;;;;4879019;29;20133;-83
2023/05/15 13:14:05;;;;;;;7.25;1.70;;;17.90;90.80;;;;;;4880267;29;20116;-83
2023/05/15 13:16:32;;;;;;;9.77;1.60;;;18.80;90.60;;;;;;4879300;29;20033;-83
2023/05/15 13:18:58;;;;;;;7.10;1.52;;;19.80;86.90;;;;;;4863110;29;20045;-81
2023/05/15 13:21:25;;;;;;;5.85;1.30;;;20.20;86.30;;;;;;4879702;29;20041;-81
2023/05/15 13:23:52;;;;;;;6.40;1.60;;;20.20;83.40;;;;;;4877595;29;20045;-84
2023/05/15 13:26:19;;;;;;;4.43;1.50;;;19.60;82.50;;;;;;4893959;29;20479;-83
2023/05/15 13:28:45;;;;;;;5.18;1.75;;;20.40;82.70;;;;;;4878476;29;20041;-85
2023/05/15 13:31:12;;;;;;;3.38;1.40;;;21.10;83.70;;;;;;4865203;29;20572;-84
2023/05/15 13:33:39;;;;;;;4.72;1.80;;;21.90;77.40;;;;;;4894800;29;20049;-87
2023/05/15 13:36:07;;;;;;;4.05;1.45;;;21.70;75.70;;;;;;4863149;29;20037;-87